Time;durP1;ratioP1;P1;durP2;ratioP2;P2;SDS_P1;SDS_P2;PMS_P1;PMS_P2;Temp;Humidity;BMP_temperature;BMP_pressure;BME280_temperature;BME280_humidity;BME280_pressure;Samples;Min_cycle;Max_cycle;Signal;HPM_P1;HPM_P2
2022/02/26 00:00:00;;;;;;;;;6.00;3.00;;;;;8.57;69.20;102500.50;5099944;27;45536;-89
2022/02/26 00:02:25;;;;;;;;;5.25;4.50;;;;;8.77;69.18;102538.16;5097966;27;46305;-89
2022/02/26 00:04:51;;;;;;;;;4.50;3.00;;;;;8.64;69.15;102513.31;5096121;27;45521;-87
2022/02/26 00:07:17;;;;;;;;;4.75;4.50;;;;;8.62;68.07;102507.31;5091341;27;46124;-85
2022/02/26 00:09:43;;;;;;;;;6.00;5.50;;;;;8.38;68.50;102471.50;5097330;27;45666;-84
2022/02/26 00:12:08;;;;;;;;;5.00;3.50;;;;;8.75;68.70;102528.63;5080109;27;45748;-89
2022/02/26 00:14:34;;;;;;;;;5.75;5.00;;;;;8.30;68.60;102463.09;5093033;27;45797;-86
2022/02/26 00:16:59;;;;;;;;;5.75;3.00;;;;;8.40;68.88;102486.25;5096004;27;45699;-86
2022/02/26 00:19:27;;;;;;;;;5.75;5.75;;;;;8.35;69.25;102485.53;5079094;27;45657;-89
2022/02/26 00:21:59;;;;;;;;;7.00;5.00;;;;;8.62;69.06;102528.19;5098723;27;46398;-89
2022/02/26 00:24:32;;;;;;;;;10.75;5.75;;;;;8.60;69.53;102526.53;5087568;27;45764;-88
2022/02/26 00:26:58;;;;;;;;;10.00;6.50;;;;;8.42;68.73;102487.03;5098263;27;45953;-87
2022/02/26 00:29:23;;;;;;;;;5.00;3.00;;;;;8.71;68.74;102545.34;5099193;27;45791;-85
2022/02/26 00:31:52;;;;;;;;;5.75;3.00;;;;;8.44;68.97;102502.66;5098731;27;45812;-89
2022/02/26 00:34:17;;;;;;;;;3.00;3.00;;;;;8.58;69.16;102534.44;5069466;28;47045;-86
2022/02/26 00:36:43;;;;;;;;;5.00;4.50;;;;;8.44;69.21;102502.66;5101222;27;46583;-84
2022/02/26 00:39:08;;;;;;;;;5.00;3.00;;;;;8.40;69.33;102498.44;5091894;27;46353;-88
2022/02/26 00:41:34;;;;;;;;;5.75;3.00;;;;;8.47;69.30;102504.34;5089828;27;46599;-85
2022/02/26 00:43:59;;;;;;;;;5.50;5.00;;;;;8.65;68.94;102535.94;5082688;27;45673;-87
2022/02/26 00:46:25;;;;;;;;;6.00;6.00;;;;;8.65;69.43;102543.75;5063630;27;46338;-84
2022/02/26 00:51:34;;;;;;;;;6.50;3.50;;;;;8.53;69.54;102523.25;5088775;27;46001;-88
2022/02/26 00:54:02;;;;;;;;;6.25;3.50;;;;;8.65;69.45;102546.38;5080312;27;48556;-86
2022/02/26 00:56:28;;;;;;;;;7.75;5.00;;;;;8.65;69.51;102554.22;5099184;27;45775;-85
2022/02/26 00:58:53;;;;;;;;;7.00;5.00;;;;;8.55;69.77;102531.91;5103409;27;45777;-83
2022/02/26 01:01:19;;;;;;;;;6.75;6.00;;;;;8.66;69.58;102550.72;5083005;27;48409;-90
2022/02/26 01:03:45;;;;;;;;;1.00;1.00;;;;;8.55;69.79;102520.59;5067290;27;48838;-87
2022/02/26 01:06:10;;;;;;;;;4.75;4.50;;;;;8.65;69.71;102545.53;5099440;27;46563;-85
2022/02/26 01:08:35;;;;;;;;;6.00;4.50;;;;;8.37;69.73;102503.75;5079778;27;45908;-82
2022/02/26 01:11:04;;;;;;;;;5.00;5.00;;;;;8.53;69.56;102543.31;5081119;27;48447;-85
2022/02/26 01:13:29;;;;;;;;;6.00;5.25;;;;;8.65;69.69;102566.41;5099416;27;46253;-88
2022/02/26 01:15:55;;;;;;;;;5.00;3.00;;;;;8.44;69.52;102526.16;5097414;27;45827;-89
2022/02/26 01:18:21;;;;;;;;;6.00;5.75;;;;;8.37;69.56;102508.97;5089919;27;45509;-85
2022/02/26 01:20:46;;;;;;;;;7.00;5.00;;;;;8.38;69.33;102521.97;5096063;27;45960;-85
2022/02/26 01:23:12;;;;;;;;;7.75;6.00;;;;;8.27;69.60;102502.28;5074103;28;46367;-86
2022/02/26 01:25:38;;;;;;;;;7.50;6.75;;;;;8.28;69.67;102512.69;5096459;27;45553;-86
2022/02/26 01:28:03;;;;;;;;;8.25;7.00;;;;;8.61;69.58;102562.22;5100198;27;46126;-86
2022/02/26 01:30:29;;;;;;;;;9.50;7.00;;;;;8.25;69.67;102504.13;5091867;27;45667;-88
2022/02/26 01:32:57;;;;;;;;;7.00;6.00;;;;;8.17;69.69;102493.03;5092216;27;46333;-89
2022/02/26 01:35:23;;;;;;;;;6.00;4.50;;;;;8.02;69.58;102489.16;5096066;27;46344;-91
2022/02/26 01:37:48;;;;;;;;;5.75;3.50;;;;;7.94;69.68;102467.63;5090413;27;45698;-89
2022/02/26 01:40:14;;;;;;;;;6.50;5.00;;;;;8.56;69.64;102580.66;5099508;27;45419;-89
2022/02/26 01:42:39;;;;;;;;;4.50;4.50;;;;;8.46;69.50;102552.25;5099383;27;45715;-87
2022/02/26 01:45:17;;;;;;;;;8.25;5.50;;;;;8.23;69.62;102518.97;5100656;27;45656;-88
2022/02/26 01:47:44;;;;;;;;;7.25;6.25;;;;;7.92;69.81;102464.22;5082700;27;45705;-84
2022/02/26 01:50:13;;;;;;;;;7.50;6.00;;;;;7.96;69.72;102468.44;5098852;27;46652;-87
2022/02/26 01:52:41;;;;;;;;;5.50;5.25;;;;;8.06;69.74;102492.50;5099067;27;47101;-87
2022/02/26 01:55:08;;;;;;;;;10.50;10.00;;;;;8.12;69.70;102503.63;5081047;27;45641;-91
2022/02/26 01:57:38;;;;;;;;;15.00;12.25;;;;;8.10;69.56;102509.81;5073203;27;45757;-86
2022/02/26 02:00:07;;;;;;;;;9.75;8.00;;;;;8.49;69.91;102571.28;5076569;28;47654;-87
2022/02/26 02:02:32;;;;;;;;;9.75;7.50;;;;;8.28;69.84;102524.91;5087501;27;48213;-87
2022/02/26 02:04:59;;;;;;;;;10.25;10.00;;;;;8.48;69.75;102571.31;5083124;27;45647;-82
2022/02/26 02:07:25;;;;;;;;;11.00;9.75;;;;;8.16;69.69;102528.72;5081001;27;45760;-87
2022/02/26 02:09:50;;;;;;;;;11.00;9.75;;;;;8.38;69.89;102573.34;5082269;27;47499;-87
2022/02/26 02:12:17;;;;;;;;;12.50;9.50;;;;;8.37;69.86;102559.44;5097379;27;45753;-83
2022/02/26 02:14:47;;;;;;;;;10.00;8.75;;;;;8.06;69.85;102501.19;5083087;27;45884;-85
2022/02/26 02:17:12;;;;;;;;;9.00;6.50;;;;;7.76;69.88;102453.41;5083421;27;45971;-89
2022/02/26 02:19:39;;;;;;;;;11.25;8.25;;;;;8.34;69.89;102558.69;5093651;27;45727;-85
2022/02/26 02:22:07;;;;;;;;;9.75;7.50;;;;;8.20;70.08;102529.50;5090685;27;45811;-89
2022/02/26 02:24:34;;;;;;;;;8.25;6.75;;;;;8.36;70.07;102568.22;5085788;27;45836;-91
2022/02/26 02:27:00;;;;;;;;;10.00;6.25;;;;;8.35;69.95;102576.94;5098296;27;45779;-89
2022/02/26 02:29:29;;;;;;;;;8.75;7.75;;;;;7.94;70.20;102502.41;5082334;27;47646;-88
2022/02/26 02:31:55;;;;;;;;;12.75;9.75;;;;;7.99;70.09;102504.88;5095781;27;46185;-89
2022/02/26 02:34:21;;;;;;;;;9.25;8.50;;;;;7.97;70.13;102502.34;5082764;27;45805;-89
2022/02/26 02:36:49;;;;;;;;;11.00;7.25;;;;;8.11;70.11;102517.56;5081633;27;45797;-88
2022/02/26 02:39:15;;;;;;;;;9.50;7.00;;;;;7.96;70.01;102510.22;5080978;27;48149;-85
2022/02/26 02:41:41;;;;;;;;;8.75;7.00;;;;;8.06;70.17;102508.16;5076491;27;46276;-87
2022/02/26 02:44:10;;;;;;;;;12.50;10.75;;;;;7.85;70.19;102481.81;5099375;27;45515;-90
2022/02/26 02:46:36;;;;;;;;;12.75;10.75;;;;;7.83;70.14;102483.59;5091416;27;45698;-87
2022/02/26 02:49:01;;;;;;;;;11.00;9.00;;;;;8.08;70.34;102529.88;5081603;27;47481;-89
2022/02/26 02:51:27;;;;;;;;;17.75;11.25;;;;;7.87;70.09;102492.22;5101237;27;46093;-89
2022/02/26 02:53:53;;;;;;;;;10.50;10.25;;;;;7.78;69.99;102488.09;5082400;28;45783;-91
2022/02/26 02:56:18;;;;;;;;;2.50;0.75;;;;;7.95;70.45;102513.72;5077787;28;45642;-88
2022/02/26 02:58:44;;;;;;;;;14.50;11.25;;;;;7.85;69.99;102500.09;5084421;28;46495;-85
2022/02/26 03:01:09;;;;;;;;;11.50;10.00;;;;;8.12;70.22;102541.94;5083702;27;45708;-87
2022/02/26 03:03:35;;;;;;;;;10.00;9.25;;;;;8.14;70.52;102542.75;5079945;28;45794;-88
2022/02/26 03:06:00;;;;;;;;;12.75;10.25;;;;;7.87;70.29;102484.41;5079074;28;45688;-86
2022/02/26 03:08:26;;;;;;;;;12.00;9.75;;;;;8.11;70.35;102535.84;5073987;28;47716;-88
2022/02/26 03:10:58;;;;;;;;;16.75;10.00;;;;;7.80;70.01;102478.50;5081122;27;45644;-88
2022/02/26 03:13:26;;;;;;;;;10.25;9.50;;;;;7.96;69.95;102512.81;5070744;28;46117;-84
2022/02/26 03:15:53;;;;;;;;;15.00;9.00;;;;;8.06;70.29;102529.91;5079173;28;45488;-89
2022/02/26 03:18:20;;;;;;;;;14.50;10.00;;;;;7.84;70.47;102503.59;5084711;27;46854;-87
2022/02/26 03:20:46;;;;;;;;;10.25;9.75;;;;;7.46;70.49;102439.50;5078440;28;46402;-89
2022/02/26 03:23:12;;;;;;;;;10.50;9.50;;;;;7.81;70.36;102505.44;5080556;27;45747;-89
2022/02/26 03:25:40;;;;;;;;;15.00;12.25;;;;;7.80;70.53;102508.94;5076142;28;45766;-89
2022/02/26 03:28:07;;;;;;;;;13.25;13.00;;;;;8.03;70.29;102548.28;5078902;27;45544;-88
2022/02/26 03:30:35;;;;;;;;;14.25;12.00;;;;;7.74;70.62;102493.47;5078940;27;45705;-89
2022/02/26 03:33:00;;;;;;;;;17.25;12.25;;;;;7.48;70.53;102447.28;5070201;27;45896;-87
2022/02/26 03:35:26;;;;;;;;;16.75;10.00;;;;;7.58;70.20;102464.38;5077146;28;45921;-88
2022/02/26 03:37:52;;;;;;;;;17.00;14.00;;;;;7.85;70.50;102510.53;5072429;28;47530;-82
2022/02/26 03:40:23;;;;;;;;;10.50;10.00;;;;;7.34;70.44;102424.19;5076394;28;46894;-88
2022/02/26 03:42:49;;;;;;;;;12.50;10.75;;;;;7.62;70.46;102472.94;5078374;28;45779;-84
2022/02/26 03:45:18;;;;;;;;;15.00;13.00;;;;;8.00;70.61;102540.53;5077311;27;45740;-83
2022/02/26 03:47:56;;;;;;;;;8.00;7.00;;;;;7.67;70.66;102484.09;5063615;27;45650;-84
2022/02/26 03:50:21;;;;;;;;;9.25;9.00;;;;;7.57;70.30;102463.50;5078149;28;47115;-88
2022/02/26 03:52:53;;;;;;;;;15.75;11.00;;;;;7.87;70.31;102518.31;5075057;27;46171;-88
2022/02/26 03:55:18;;;;;;;;;14.00;10.75;;;;;7.76;70.11;102499.50;5079400;27;46190;-90
2022/02/26 03:57:44;;;;;;;;;10.25;9.00;;;;;7.87;70.06;102526.16;5082633;27;46947;-89
2022/02/26 04:00:24;;;;;;;;;9.75;8.50;;;;;7.94;70.24;102532.88;5094820;27;45633;-90
2022/02/26 04:02:53;;;;;;;;;7.00;7.00;;;;;7.36;70.41;102435.44;5098480;27;45785;-87
2022/02/26 04:05:24;;;;;;;;;10.25;9.25;;;;;7.97;70.23;102556.28;5102376;27;45446;-88
2022/02/26 04:07:59;;;;;;;;;7.25;6.50;;;;;7.28;70.21;102432.22;5100576;27;46211;-86
2022/02/26 04:10:28;;;;;;;;;10.00;9.00;;;;;7.36;70.18;102445.88;5081046;27;47407;-85
2022/02/26 04:12:54;;;;;;;;;12.25;8.75;;;;;7.33;70.27;102445.97;5100981;27;45739;-88
2022/02/26 04:15:42;;;;;;;;;9.50;7.00;;;;;7.25;70.15;102427.06;5103175;27;45577;-86
2022/02/26 04:18:11;;;;;;;;;8.25;6.50;;;;;7.32;70.04;102443.38;5078042;27;47320;-90
2022/02/26 04:20:42;;;;;;;;;9.75;7.00;;;;;7.85;70.27;102551.41;5105462;27;46196;-88
2022/02/26 04:23:18;;;;;;;;;14.00;9.75;;;;;7.26;70.06;102460.06;5103068;27;45621;-87
2022/02/26 04:25:46;;;;;;;;;14.75;10.50;;;;;7.22;70.13;102458.44;5084785;27;45551;-82
2022/02/26 04:28:15;;;;;;;;;10.00;7.50;;;;;7.14;70.01;102443.00;5070310;28;48038;-88
2022/02/26 04:30:50;;;;;;;;;8.25;7.75;;;;;7.56;70.28;102518.31;5101751;27;45914;-89
2022/02/26 04:33:22;;;;;;;;;9.25;8.25;;;;;7.45;70.04;102510.78;5103451;27;45706;-89
2022/02/26 04:35:53;;;;;;;;;7.75;5.00;;;;;7.82;70.48;102565.41;5080588;28;45671;-87
2022/02/26 04:38:18;;;;;;;;;7.00;7.00;;;;;7.40;70.03;102489.19;5083835;27;47339;-87
2022/02/26 04:40:49;;;;;;;;;6.25;5.75;;;;;7.80;70.17;102564.59;5101892;27;45868;-83
2022/02/26 04:43:15;;;;;;;;;10.00;8.75;;;;;7.54;70.13;102531.41;5070686;27;45620;-86
2022/02/26 04:45:41;;;;;;;;;10.50;9.25;;;;;7.56;70.07;102521.78;5102100;27;45655;-84
2022/02/26 04:48:09;;;;;;;;;10.50;8.00;;;;;7.53;70.26;102534.06;5114941;27;45993;-84
2022/02/26 04:50:34;;;;;;;;;10.00;7.25;;;;;7.08;70.44;102458.78;5094957;28;47269;-86
2022/02/26 04:53:03;;;;;;;;;9.50;6.00;;;;;7.47;70.29;102522.03;5109420;27;45523;-84
2022/02/26 04:55:34;;;;;;;;;9.75;9.00;;;;;7.09;70.23;102455.31;5088480;27;45077;-87
2022/02/26 04:58:07;;;;;;;;;9.00;7.50;;;;;7.72;70.32;102569.16;5116082;27;47585;-84
2022/02/26 05:00:33;;;;;;;;;9.25;7.50;;;;;7.23;70.07;102485.38;5111215;27;45648;-82
2022/02/26 05:03:01;;;;;;;;;9.50;7.25;;;;;7.61;70.36;102549.50;5101365;27;45046;-82
2022/02/26 05:05:27;;;;;;;;;11.25;6.25;;;;;7.45;70.30;102520.38;5113819;27;45338;-82
2022/02/26 05:08:01;;;;;;;;;8.50;8.00;;;;;7.68;70.27;102553.63;5117161;27;45172;-85
2022/02/26 05:10:32;;;;;;;;;6.75;5.75;;;;;7.66;70.32;102561.53;5113371;27;46673;-83
2022/02/26 05:13:00;;;;;;;;;9.00;7.25;;;;;7.64;70.32;102549.41;5095239;27;46097;-87
2022/02/26 05:15:36;;;;;;;;;;;;;;;;;;;;;
2022/02/26 05:18:11;;;;;;;;;11.00;7.00;;;;;7.59;70.25;102559.97;5102305;27;75960;-86
2022/02/26 05:20:37;;;;;;;;;7.75;7.00;;;;;7.36;70.37;102526.69;5104677;27;47457;-81
2022/02/26 05:23:02;;;;;;;;;10.25;7.50;;;;;7.21;70.40;102492.34;5105924;27;45677;-84
2022/02/26 05:25:33;;;;;;;;;10.75;9.00;;;;;7.45;70.59;102539.47;5085723;27;45642;-83
2022/02/26 05:27:58;;;;;;;;;10.25;7.00;;;;;7.32;70.54;102521.59;5100055;27;46598;-83
2022/02/26 05:30:24;;;;;;;;;10.50;6.75;;;;;7.49;70.62;102553.31;5080110;27;47600;-81
2022/02/26 05:32:49;;;;;;;;;8.50;5.50;;;;;7.38;70.62;102537.94;5073958;27;45818;-85
2022/02/26 05:35:16;;;;;;;;;14.00;7.50;;;;;7.32;70.55;102527.69;5096778;27;46382;-81
2022/02/26 05:37:42;;;;;;;;;10.50;9.25;;;;;7.25;70.41;102533.06;5094661;27;46517;-84
2022/02/26 05:40:08;;;;;;;;;10.25;9.75;;;;;7.42;70.49;102551.75;5098392;27;45681;-86
2022/02/26 05:42:34;;;;;;;;;9.75;7.50;;;;;7.41;70.70;102563.06;5099084;27;45683;-82
2022/02/26 05:45:00;;;;;;;;;13.25;8.00;;;;;7.27;70.58;102528.69;5079438;27;45726;-83
2022/02/26 05:47:29;;;;;;;;;9.75;9.00;;;;;7.21;70.50;102529.72;5098559;27;46480;-84
2022/02/26 05:49:55;;;;;;;;;16.00;9.25;;;;;7.01;70.53;102495.50;5097762;27;47281;-83
2022/02/26 05:52:20;;;;;;;;;6.25;5.25;;;;;7.05;70.21;102510.16;5077528;27;46211;-85
2022/02/26 05:54:49;;;;;;;;;10.50;8.75;;;;;7.35;70.82;102558.88;5082753;27;45757;-83
2022/02/26 05:57:19;;;;;;;;;7.75;7.25;;;;;6.89;70.47;102478.44;5101428;27;46888;-83
2022/02/26 05:59:45;;;;;;;;;8.00;8.00;;;;;6.62;70.56;102434.84;5094614;27;46545;-88
2022/02/26 06:02:16;;;;;;;;;8.50;6.25;;;;;7.19;70.50;102539.31;5101246;27;45592;-82
2022/02/26 06:04:41;;;;;;;;;9.00;7.25;;;;;7.10;70.84;102534.34;5091739;27;45571;-80
2022/02/26 06:07:07;;;;;;;;;8.75;7.75;;;;;7.28;70.66;102562.56;5080022;27;46171;-82
2022/02/26 06:09:36;;;;;;;;;12.00;8.75;;;;;6.62;70.45;102447.88;5080093;27;48182;-86
2022/02/26 06:12:25;;;;;;;;;7.25;6.00;;;;;6.62;70.59;102450.47;5092827;27;45840;-82
2022/02/26 06:14:51;;;;;;;;;7.25;7.25;;;;;7.01;70.70;102526.78;5067221;28;46258;-83
2022/02/26 06:17:22;;;;;;;;;6.00;5.00;;;;;7.23;70.65;102563.56;5058570;27;48281;-86
2022/02/26 06:19:51;;;;;;;;;8.00;7.75;;;;;7.21;70.41;102565.34;5080824;27;45836;-83
2022/02/26 06:22:22;;;;;;;;;10.00;7.25;;;;;7.18;70.44;102572.34;5099777;27;45724;-84
2022/02/26 06:24:56;;;;;;;;;7.25;5.75;;;;;6.94;70.78;102531.28;5089530;27;45723;-86
2022/02/26 06:27:22;;;;;;;;;8.00;5.25;;;;;7.15;70.77;102572.44;5089373;27;48280;-87
2022/02/26 06:29:50;;;;;;;;;7.25;6.00;;;;;7.13;70.60;102570.75;5091633;27;45990;-83
2022/02/26 06:32:15;;;;;;;;;9.50;8.50;;;;;6.70;70.68;102498.84;5099862;27;45923;-81
2022/02/26 06:34:41;;;;;;;;;9.50;8.00;;;;;7.07;70.73;102563.09;5098166;27;46032;-86
2022/02/26 06:37:10;;;;;;;;;5.25;4.50;;;;;6.52;70.74;102468.09;5073151;27;47465;-86
2022/02/26 06:39:38;;;;;;;;;5.25;5.25;;;;;6.71;70.56;102508.38;5091975;27;47020;-80
2022/02/26 06:42:04;;;;;;;;;6.75;5.00;;;;;7.08;70.52;102560.44;5099911;27;45860;-85
2022/02/26 06:44:33;;;;;;;;;8.50;7.25;;;;;6.79;70.73;102522.97;5087651;27;45841;-84
2022/02/26 06:46:59;;;;;;;;;8.00;5.75;;;;;7.05;70.53;102570.09;5096729;27;47522;-84
2022/02/26 06:49:24;;;;;;;;;6.25;5.50;;;;;6.77;70.73;102532.56;5100505;27;45474;-83
2022/02/26 06:51:50;;;;;;;;;9.75;7.25;;;;;6.82;70.88;102546.34;5099159;27;45729;-84
2022/02/26 06:54:18;;;;;;;;;5.00;4.00;;;;;6.44;70.70;102483.00;5095479;27;45685;-82
2022/02/26 06:56:49;;;;;;;;;8.50;6.75;;;;;6.80;70.82;102535.13;5098271;27;46459;-81
2022/02/26 06:59:17;;;;;;;;;5.00;4.50;;;;;6.96;70.67;102570.31;5070400;27;47008;-86
2022/02/26 07:01:49;;;;;;;;;8.50;6.00;;;;;6.33;70.41;102464.19;5097616;27;45857;-87
2022/02/26 07:04:15;;;;;;;;;8.00;5.00;;;;;6.65;70.70;102521.56;5068329;27;46020;-81
2022/02/26 07:06:44;;;;;;;;;5.50;5.00;;;;;6.55;70.70;102504.44;5089682;27;47070;-83
2022/02/26 07:09:14;;;;;;;;;6.00;6.00;;;;;6.63;70.74;102517.28;5099077;27;46109;-83
2022/02/26 07:11:45;;;;;;;;;5.25;5.00;;;;;6.95;70.59;102566.00;5090653;27;46119;-86
2022/02/26 07:14:14;;;;;;;;;9.00;6.00;;;;;6.85;70.62;102562.78;5078870;27;45591;-83
2022/02/26 07:16:46;;;;;;;;;11.50;6.00;;;;;6.55;70.31;102516.59;5081523;27;45781;-82
2022/02/26 07:19:15;;;;;;;;;6.00;5.75;;;;;6.85;70.43;102572.34;5073022;27;47105;-84
2022/02/26 07:21:42;;;;;;;;;9.75;8.00;;;;;6.49;70.51;102506.34;5101173;27;45856;-87
2022/02/26 07:24:07;;;;;;;;;8.00;6.25;;;;;6.55;70.50;102521.81;5084554;27;45784;-84
2022/02/26 07:26:33;;;;;;;;;10.00;8.25;;;;;6.90;70.51;102581.75;5082918;27;45645;-84
2022/02/26 07:28:59;;;;;;;;;9.00;6.75;;;;;6.91;70.40;102580.00;5070501;27;46785;-84
2022/02/26 07:31:27;;;;;;;;;8.00;6.00;;;;;6.50;70.43;102511.50;5106839;27;45690;-86
2022/02/26 07:33:56;;;;;;;;;10.25;7.00;;;;;6.51;70.58;102512.38;5087750;27;45939;-84
2022/02/26 07:36:22;;;;;;;;;7.50;6.00;;;;;6.46;70.82;102499.47;5097344;27;46667;-87
2022/02/26 07:38:57;;;;;;;;;10.25;9.00;;;;;6.71;70.57;102549.22;5100661;27;45845;-83
2022/02/26 07:41:23;;;;;;;;;8.75;8.75;;;;;6.94;70.50;102577.31;5100715;27;45736;-90
2022/02/26 07:43:48;;;;;;;;;9.25;7.75;;;;;6.71;70.53;102544.84;5083572;27;46074;-91
2022/02/26 07:46:14;;;;;;;;;9.50;9.25;;;;;6.71;70.35;102549.22;5088587;27;47174;-85
2022/02/26 07:48:39;;;;;;;;;9.75;8.25;;;;;6.94;70.39;102583.38;5064075;28;47165;-87
2022/02/26 07:51:05;;;;;;;;;7.25;5.75;;;;;6.81;70.32;102568.06;5099868;27;45731;-85
2022/02/26 07:53:30;;;;;;;;;8.50;8.50;;;;;6.91;70.21;102573.00;5113311;27;45872;-86
2022/02/26 07:55:56;;;;;;;;;12.50;9.25;;;;;6.71;70.16;102544.84;5109661;27;45948;-85
2022/02/26 07:58:21;;;;;;;;;8.50;8.25;;;;;6.86;70.13;102569.66;5119373;27;45529;-80
2022/02/26 08:00:48;;;;;;;;;13.00;10.00;;;;;6.87;70.31;102570.53;5113693;27;46023;-79
2022/02/26 08:03:13;;;;;;;;;9.75;8.50;;;;;6.92;70.21;102571.28;5111303;27;45608;-81
2022/02/26 08:05:38;;;;;;;;;12.50;10.00;;;;;7.00;70.17;102593.66;5090363;28;46695;-80
2022/02/26 08:08:04;;;;;;;;;16.00;10.00;;;;;6.69;69.96;102545.81;5099237;27;45740;-81
2022/02/26 08:10:29;;;;;;;;;10.00;9.00;;;;;7.03;70.05;102588.34;5105043;27;45651;-83
2022/02/26 08:12:57;;;;;;;;;10.00;9.00;;;;;6.96;69.81;102565.13;5096566;27;45805;-83
2022/02/26 08:15:34;;;;;;;;;7.75;6.25;;;;;7.03;69.83;102590.09;5107249;27;45500;-83
2022/02/26 08:17:59;;;;;;;;;7.50;6.50;;;;;7.02;69.85;102586.63;5093211;27;45600;-84
2022/02/26 08:20:26;;;;;;;;;7.50;7.00;;;;;7.03;69.94;102603.13;5103781;27;45696;-83
2022/02/26 08:22:54;;;;;;;;;10.75;9.00;;;;;6.89;69.89;102574.81;5081427;27;45962;-88
2022/02/26 08:25:20;;;;;;;;;7.25;6.00;;;;;6.89;69.55;102572.22;5077957;27;45853;-88
2022/02/26 08:27:46;;;;;;;;;11.50;7.75;;;;;6.86;70.31;102568.81;5086235;27;47158;-86
2022/02/26 08:30:15;;;;;;;;;6.00;5.00;;;;;6.97;69.49;102580.69;5105166;27;45630;-89
2022/02/26 08:32:42;;;;;;;;;10.00;6.00;;;;;7.04;69.68;102594.44;5106298;27;45615;-88
2022/02/26 08:35:08;;;;;;;;;9.00;8.00;;;;;6.84;69.68;102555.00;5105511;27;45628;-84
2022/02/26 08:37:35;;;;;;;;;5.75;4.50;;;;;6.99;69.66;102580.66;5110227;27;45450;-89
2022/02/26 08:40:02;;;;;;;;;10.25;7.00;;;;;7.04;69.53;102584.00;5108431;27;45382;-90
2022/02/26 08:42:28;;;;;;;;;8.25;6.50;;;;;6.98;69.13;102568.53;5088912;27;45655;-82
2022/02/26 08:44:54;;;;;;;;;6.50;6.00;;;;;6.98;69.34;102563.31;5088370;27;47464;-88
2022/02/26 08:47:21;;;;;;;;;8.50;6.00;;;;;6.91;69.16;102546.13;5076284;27;46459;-83
2022/02/26 08:49:47;;;;;;;;;5.50;5.00;;;;;6.96;68.90;102557.31;5102699;27;45685;-90
2022/02/26 08:52:13;;;;;;;;;9.00;6.25;;;;;7.20;69.33;102589.69;5084473;27;45671;-90
2022/02/26 08:54:38;;;;;;;;;9.25;6.00;;;;;7.25;68.98;102591.28;5098629;27;46785;-86
2022/02/26 08:57:05;;;;;;;;;8.00;7.25;;;;;6.91;68.96;102533.94;5099444;27;45689;-88
2022/02/26 08:59:31;;;;;;;;;9.75;8.75;;;;;7.09;68.73;102551.72;5081931;27;45734;-88
2022/02/26 09:01:58;;;;;;;;;6.00;6.00;;;;;6.59;68.52;102467.00;5081228;27;45890;-88
2022/02/26 09:04:23;;;;;;;;;8.75;5.50;;;;;7.25;68.84;102580.84;5084455;27;46930;-86
2022/02/26 09:06:49;;;;;;;;;8.00;5.50;;;;;7.38;69.08;102600.53;5098434;27;46274;-86
2022/02/26 09:09:15;;;;;;;;;5.75;5.00;;;;;7.40;69.12;102590.03;5091885;27;45647;-82
2022/02/26 09:11:41;;;;;;;;;8.50;6.00;;;;;7.18;68.64;102539.38;5085168;27;45886;-87
2022/02/26 09:14:10;;;;;;;;;7.00;6.50;;;;;7.24;69.01;102537.44;5078290;27;47204;-83
2022/02/26 09:16:36;;;;;;;;;6.75;6.25;;;;;7.29;68.50;102551.19;5095172;27;46626;-82
2022/02/26 09:19:02;;;;;;;;;5.50;5.00;;;;;7.43;68.75;102559.53;5094188;27;45593;-85
2022/02/26 09:21:28;;;;;;;;;9.75;6.00;;;;;7.60;68.65;102593.00;5077383;27;45736;-81
2022/02/26 09:23:54;;;;;;;;;11.00;6.50;;;;;7.46;68.88;102558.59;5094019;27;46665;-86
2022/02/26 09:26:19;;;;;;;;;11.25;6.00;;;;;7.71;68.70;102583.13;5082715;27;46019;-87
2022/02/26 09:28:45;;;;;;;;;9.25;7.00;;;;;7.45;68.75;102531.66;5083307;27;45708;-86
2022/02/26 09:31:12;;;;;;;;;10.00;8.50;;;;;7.58;68.63;102545.22;5087780;27;45736;-82
2022/02/26 09:33:39;;;;;;;;;7.50;6.00;;;;;7.85;68.61;102586.19;5094108;27;45814;-81
2022/02/26 09:36:06;;;;;;;;;10.50;7.00;;;;;7.89;68.03;102574.75;5076185;27;47394;-82
2022/02/26 09:38:40;;;;;;;;;6.00;6.00;;;;;7.86;68.01;102559.22;5095086;27;45935;-81
2022/02/26 09:41:07;;;;;;;;;6.00;6.00;;;;;7.76;68.05;102530.81;5074056;28;45922;-82
2022/02/26 09:43:34;;;;;;;;;5.50;5.25;;;;;7.76;67.79;102523.00;5088793;27;46116;-82
2022/02/26 09:46:03;;;;;;;;;9.25;7.00;;;;;8.00;67.64;102556.19;5068530;27;47434;-79
2022/02/26 09:48:29;;;;;;;;;4.50;3.00;;;;;7.48;67.38;102458.56;5080285;27;46165;-81
2022/02/26 09:51:23;;;;;;;;;8.75;5.00;;;;;8.06;66.92;102547.31;5085374;27;46144;-85
2022/02/26 10:00:13;;;;;;;;;5.00;3.00;;;;;8.09;66.89;102534.19;4936797;28;45937;-86
2022/02/26 10:02:47;;;;;;;;;9.00;5.25;;;;;8.38;66.53;102569.00;4934668;28;45711;-83
2022/02/26 10:05:13;;;;;;;;;3.50;3.50;;;;;7.90;66.07;102476.47;4933251;28;46573;-81
2022/02/26 10:07:41;;;;;;;;;5.00;5.00;;;;;8.08;65.88;102503.78;4930530;28;45755;-80
2022/02/26 10:10:20;;;;;;;;;6.00;3.00;;;;;8.51;65.30;102561.66;4937969;28;45826;-79
2022/02/26 10:13:13;;;;;;;;;6.00;5.50;;;;;7.95;64.91;102467.59;4939768;28;46150;-81
2022/02/26 10:15:40;;;;;;;;;6.50;5.50;;;;;8.20;65.37;102498.19;4929644;28;46560;-79
2022/02/26 10:18:25;;;;;;;;;6.50;5.25;;;;;8.63;65.21;102549.97;4917589;28;48100;-83
2022/02/26 10:20:59;;;;;;;;;6.00;2.75;;;;;8.33;64.90;102509.97;4936252;28;45867;-81
2022/02/26 10:23:25;;;;;;;;;6.00;5.50;;;;;8.72;65.02;102567.94;4940014;28;45857;-84
2022/02/26 10:26:07;;;;;;;;;6.00;5.00;;;;;8.77;64.73;102561.69;4915559;28;48028;-87
2022/02/26 10:32:20;;;;;;;;;5.75;3.00;;;;;8.88;64.21;102545.63;4893496;28;45946;-84
2022/02/26 10:35:54;;;;;;;;;3.00;3.00;;;;;8.29;63.83;102445.66;4857437;28;45931;-85
2022/02/26 10:38:34;;;;;;;;;4.50;3.50;;;;;8.99;63.76;102548.75;4827504;29;47357;-84
2022/02/26 10:41:18;;;;;;;;;3.50;2.50;;;;;8.42;62.73;102447.03;4820563;29;46711;-84
2022/02/26 10:44:13;;;;;;;;;2.75;2.00;;;;;8.44;63.12;102445.19;4822096;29;45917;-85
2022/02/26 10:49:24;;;;;;;;;6.25;5.25;;;;;8.51;62.39;102431.03;4777529;29;45853;-85
2022/02/26 10:51:50;;;;;;;;;2.25;2.00;;;;;9.16;62.69;102535.97;4799499;29;48206;-85
2022/02/26 10:54:45;;;;;;;;;;;;;;;;;;;;;
2022/02/26 10:57:31;;;;;;;;;3.50;2.75;;;;;9.24;61.66;102533.06;4787673;29;70058;-84
2022/02/26 10:59:57;;;;;;;;;5.00;2.25;;;;;8.98;62.13;102468.63;4803017;29;48022;-85
2022/02/26 11:02:24;;;;;;;;;2.50;2.50;;;;;9.27;61.90;102510.31;4785378;29;46174;-80
2022/02/26 11:04:51;;;;;;;;;2.50;2.25;;;;;9.34;61.78;102524.00;4782899;29;45721;-80
2022/02/26 11:07:16;;;;;;;;;5.00;2.50;;;;;9.19;61.78;102482.69;4783902;29;45728;-81
2022/02/26 11:09:53;;;;;;;;;2.25;2.25;;;;;9.36;61.46;102496.03;4843258;29;46111;-80
2022/02/26 11:12:24;;;;;;;;;5.00;3.50;;;;;9.41;61.04;102501.09;4906628;28;46579;-81
2022/02/26 11:15:01;;;;;;;;;2.00;2.00;;;;;9.53;60.84;102501.53;4955401;28;45760;-81
2022/02/26 11:17:29;;;;;;;;;5.00;5.00;;;;;9.53;60.71;102492.81;5010600;28;45743;-82
2022/02/26 11:20:02;;;;;;;;;4.75;2.75;;;;;9.60;60.96;102502.16;5012639;28;45917;-81
2022/02/26 11:22:28;;;;;;;;;1.75;1.75;;;;;9.62;61.24;102492.47;5010939;28;47393;-80
2022/02/26 11:24:55;;;;;;;;;5.00;2.00;;;;;9.72;61.20;102495.63;5011951;28;45727;-82
2022/02/26 11:27:22;;;;;;;;;2.25;2.00;;;;;9.76;60.62;102491.97;5074845;27;45817;-80
2022/02/26 11:29:48;;;;;;;;;5.25;2.50;;;;;9.79;60.39;102495.31;5054893;28;46539;-82
2022/02/26 11:32:15;;;;;;;;;3.75;3.75;;;;;9.72;60.18;102478.13;5087317;27;46141;-84
2022/02/26 11:34:41;;;;;;;;;2.00;2.00;;;;;9.86;59.94;102483.72;5083252;27;45802;-83
2022/02/26 11:37:09;;;;;;;;;3.25;2.25;;;;;9.90;59.83;102482.69;5093415;27;45807;-82
2022/02/26 11:39:41;;;;;;;;;4.00;3.00;;;;;9.82;59.52;102452.50;5067287;27;47314;-82
2022/02/26 11:42:18;;;;;;;;;4.00;3.00;;;;;9.96;59.46;102476.34;5092957;27;46151;-81
2022/02/26 11:45:01;;;;;;;;;3.00;3.00;;;;;9.56;58.59;102414.19;5092997;27;45936;-81
2022/02/26 11:47:50;;;;;;;;;4.25;2.50;;;;;9.83;59.18;102430.59;5081439;27;45735;-82
2022/02/26 11:50:46;;;;;;;;;4.50;3.50;;;;;9.54;58.64;102382.03;5088863;27;45993;-82
2022/02/26 11:56:49;;;;;;;;;4.50;3.00;;;;;10.06;57.89;102456.75;4931653;28;47906;-82
2022/02/26 12:00:05;;;;;;;;;;;;;;;;;;;;;